createdAt,value
2022-12-03T00:03:59.611Z,-5.27
2022-12-03T00:09:02.780Z,-5.48
2022-12-03T00:14:05.393Z,-5.70
2022-12-03T00:19:08.000Z,-5.71
2022-12-03T00:24:10.507Z,-5.95
2022-12-03T00:29:12.999Z,-6.18
2022-12-03T00:34:15.525Z,-6.38
2022-12-03T00:39:17.951Z,-6.48
2022-12-03T00:44:20.378Z,-6.85
2022-12-03T00:49:22.881Z,-6.96
2022-12-03T00:54:31.440Z,-7.26
2022-12-03T00:59:34.666Z,-7.41
2022-12-03T01:04:38.825Z,-7.46
2022-12-03T01:09:41.307Z,-7.54
2022-12-03T01:14:43.663Z,-7.61
2022-12-03T01:19:48.765Z,-7.76
2022-12-03T01:24:51.856Z,-7.68
2022-12-03T01:29:54.482Z,-7.76
2022-12-03T01:34:57.084Z,-8.13
2022-12-03T01:39:59.621Z,-8.02
2022-12-03T01:45:02.165Z,-8.05
2022-12-03T01:50:32.095Z,-8.16
2022-12-03T01:55:34.741Z,-8.23
2022-12-03T02:00:37.195Z,-8.15
2022-12-03T02:05:39.476Z,-8.27
2022-12-03T02:10:41.922Z,-8.28
2022-12-03T02:15:44.319Z,-8.37
2022-12-03T02:21:07.300Z,-8.32
2022-12-03T02:26:10.520Z,-8.25
2022-12-03T02:31:13.092Z,-7.89
2022-12-03T02:36:16.116Z,-7.81
2022-12-03T02:41:40.198Z,-7.70
2022-12-03T02:46:42.904Z,-7.59
2022-12-03T02:51:45.435Z,-7.50
2022-12-03T02:56:47.880Z,-7.49
2022-12-03T03:01:50.528Z,-7.51
2022-12-03T03:06:53.426Z,-7.58
2022-12-03T03:11:58.902Z,-7.64
2022-12-03T03:17:01.439Z,-7.55
2022-12-03T03:22:03.999Z,-7.87
2022-12-03T03:27:06.856Z,-7.82
2022-12-03T03:32:09.491Z,-7.80
2022-12-03T03:37:12.168Z,-7.77
2022-12-03T03:42:14.850Z,-7.98
2022-12-03T03:47:19.556Z,-7.91
2022-12-03T03:52:22.440Z,-7.96
2022-12-03T03:57:24.881Z,-7.85
2022-12-03T04:02:27.712Z,-7.72
2022-12-03T04:07:30.413Z,-7.83
2022-12-03T04:12:51.389Z,-8.02
2022-12-03T04:18:13.402Z,-8.00
2022-12-03T04:23:17.004Z,-7.68
2022-12-03T04:28:37.915Z,-7.82
2022-12-03T04:33:59.044Z,-7.62
2022-12-03T04:39:01.562Z,-7.48
2022-12-03T04:44:22.374Z,-7.48
2022-12-03T04:49:24.735Z,-7.68
2022-12-03T04:54:28.983Z,-7.43
2022-12-03T04:59:32.011Z,-7.44
2022-12-03T05:04:35.000Z,-7.40
2022-12-03T05:09:37.422Z,-7.30
2022-12-03T05:14:39.896Z,-7.39
2022-12-03T05:20:00.713Z,-7.25
2022-12-03T05:25:03.367Z,-7.15
2022-12-03T05:30:06.641Z,-7.19
2022-12-03T05:35:10.586Z,-7.12
2022-12-03T05:40:14.011Z,-7.28
2022-12-03T05:45:16.504Z,-7.12
2022-12-03T05:50:19.947Z,-7.44
2022-12-03T05:55:22.884Z,-7.49
2022-12-03T06:00:28.576Z,-7.31
2022-12-03T06:05:31.344Z,-7.39
2022-12-03T06:10:33.836Z,-7.34
2022-12-03T06:15:41.944Z,-7.38
2022-12-03T06:20:46.135Z,-7.82
2022-12-03T06:25:48.726Z,-7.65
2022-12-03T06:30:51.348Z,-7.76
2022-12-03T06:35:53.855Z,-7.57
2022-12-03T06:40:56.333Z,-7.52
2022-12-03T06:45:58.962Z,-7.35
2022-12-03T06:51:01.478Z,-7.39
2022-12-03T06:56:04.088Z,-7.24
2022-12-03T07:01:06.743Z,-7.48
2022-12-03T07:06:09.336Z,-7.33
2022-12-03T07:11:31.517Z,-7.47
2022-12-03T07:16:38.067Z,-7.30
2022-12-03T07:21:40.735Z,-7.18
2022-12-03T07:26:43.270Z,-7.07
2022-12-03T07:31:45.847Z,-7.17
2022-12-03T07:36:48.380Z,-7.01
2022-12-03T07:41:50.956Z,-7.01
2022-12-03T07:46:55.109Z,-6.85
2022-12-03T07:51:57.732Z,-6.68
2022-12-03T07:57:01.787Z,-6.57
2022-12-03T08:02:04.795Z,-6.53
2022-12-03T08:07:07.304Z,-6.56
2022-12-03T08:12:17.851Z,-6.47
2022-12-03T08:17:21.961Z,-6.25
2022-12-03T08:22:25.355Z,-6.08
2022-12-03T08:27:27.898Z,-6.14
2022-12-03T08:32:31.846Z,-5.98
2022-12-03T08:37:36.399Z,-6.05
2022-12-03T08:42:44.472Z,-5.83
2022-12-03T08:47:46.979Z,-5.65
2022-12-03T08:52:49.891Z,-5.63
2022-12-03T08:57:52.378Z,-5.69
2022-12-03T09:03:00.435Z,-5.70
2022-12-03T09:08:04.125Z,-5.52
2022-12-03T09:13:06.642Z,-5.49
2022-12-03T09:18:09.429Z,-5.51
2022-12-03T09:23:12.427Z,-5.39
2022-12-03T09:28:15.004Z,-5.29
2022-12-03T09:33:17.511Z,-4.99
2022-12-03T09:38:20.268Z,-4.95
2022-12-03T09:43:24.437Z,-4.91
2022-12-03T09:48:27.390Z,-4.63
2022-12-03T09:53:30.405Z,-4.53
2022-12-03T09:58:34.899Z,-4.80
2022-12-03T10:03:42.395Z,-4.72
2022-12-03T10:08:50.533Z,-4.40
2022-12-03T10:13:57.047Z,-4.40
2022-12-03T10:19:01.770Z,-4.44
2022-12-03T10:24:28.944Z,-4.06
2022-12-03T10:29:36.601Z,-4.20
2022-12-03T10:34:41.372Z,-4.02
2022-12-03T10:40:09.493Z,-3.86
2022-12-03T10:45:20.218Z,-3.55
2022-12-03T10:50:22.747Z,-3.68
2022-12-03T10:55:25.778Z,-3.58
2022-12-03T11:00:28.271Z,-3.59
2022-12-03T11:05:30.869Z,-3.62
2022-12-03T11:11:16.834Z,-3.57
2022-12-03T11:16:41.044Z,-3.46
2022-12-03T11:22:10.225Z,-3.56
2022-12-03T11:27:12.674Z,-3.54
2022-12-03T11:32:40.754Z,-3.36
2022-12-03T11:37:43.290Z,-3.48
2022-12-03T11:42:47.877Z,-3.48
2022-12-03T11:47:59.251Z,-3.42
2022-12-03T11:53:22.335Z,-3.44
2022-12-03T11:58:30.365Z,-3.47
2022-12-03T12:03:36.832Z,-3.56
2022-12-03T12:08:49.878Z,-3.63
2022-12-03T12:13:58.498Z,-3.65
2022-12-03T12:19:43.413Z,-3.74
2022-12-03T12:24:48.446Z,-3.63
2022-12-03T12:29:56.634Z,-3.73
2022-12-03T12:35:27.072Z,-3.93
2022-12-03T12:40:32.178Z,-4.15
2022-12-03T12:45:36.851Z,-4.17
2022-12-03T12:50:41.276Z,-4.18
2022-12-03T12:55:43.871Z,-4.22
2022-12-03T13:00:58.180Z,-4.39
2022-12-03T13:06:03.782Z,-4.22
2022-12-03T13:11:24.849Z,-4.44
2022-12-03T13:16:31.829Z,-4.54
2022-12-03T13:21:39.026Z,-4.47
2022-12-03T13:26:41.909Z,-4.70
2022-12-03T13:31:51.127Z,-4.87
2022-12-03T13:36:57.977Z,-4.90
2022-12-03T13:42:42.112Z,-5.00
2022-12-03T13:47:48.846Z,-5.04
2022-12-03T13:52:53.213Z,-5.13
2022-12-03T13:57:55.827Z,-5.06
2022-12-03T14:02:59.032Z,-5.10
2022-12-03T14:08:05.146Z,-5.10
2022-12-03T14:13:07.783Z,-5.17
2022-12-03T14:18:10.273Z,-5.33
2022-12-03T14:23:12.744Z,-5.48
2022-12-03T14:28:15.209Z,-5.53
2022-12-03T14:33:17.960Z,-5.77
2022-12-03T14:38:20.637Z,-5.85
2022-12-03T14:43:23.204Z,-5.91
2022-12-03T14:48:25.790Z,-6.11
2022-12-03T14:53:28.245Z,-6.10
2022-12-03T14:58:30.679Z,-6.13
2022-12-03T15:03:49.222Z,-6.16
2022-12-03T15:08:51.743Z,-6.18
2022-12-03T15:13:54.307Z,-6.07
2022-12-03T15:18:56.767Z,-6.07
2022-12-03T15:24:00.190Z,-6.05
2022-12-03T15:29:02.656Z,-6.09
2022-12-03T15:34:05.528Z,-6.18
2022-12-03T15:39:07.994Z,-6.13
2022-12-03T15:44:10.546Z,-6.25
2022-12-03T15:49:13.189Z,-6.31
2022-12-03T15:54:15.812Z,-6.30
2022-12-03T15:59:19.793Z,-6.29
2022-12-03T16:04:22.293Z,-6.39
2022-12-03T16:09:27.445Z,-6.45
2022-12-03T16:14:30.377Z,-6.53
2022-12-03T16:19:32.781Z,-6.55
2022-12-03T16:24:36.720Z,-6.84
2022-12-03T16:29:39.184Z,-6.99
2022-12-03T16:34:41.684Z,-7.10
2022-12-03T16:39:44.313Z,-7.35
2022-12-03T16:44:55.590Z,-7.26
2022-12-03T16:49:58.122Z,-7.18
2022-12-03T16:55:00.641Z,-7.34
2022-12-03T17:00:04.015Z,-7.42
2022-12-03T17:05:07.147Z,-7.36
2022-12-03T17:10:10.125Z,-7.28
2022-12-03T17:15:12.769Z,-7.35
2022-12-03T17:20:15.520Z,-7.41
2022-12-03T17:25:18.314Z,-7.39
2022-12-03T17:30:21.403Z,-7.72
2022-12-03T17:35:23.969Z,-7.52
2022-12-03T17:40:26.924Z,-7.63
2022-12-03T17:45:29.466Z,-7.53
2022-12-03T17:50:31.991Z,-7.72
2022-12-03T17:55:42.664Z,-7.70
2022-12-03T18:00:47.849Z,-7.88
2022-12-03T18:05:50.326Z,-7.87
2022-12-03T18:10:52.843Z,-7.93
2022-12-03T18:15:56.724Z,-7.95
2022-12-03T18:21:02.422Z,-7.99
2022-12-03T18:26:05.602Z,-8.07
2022-12-03T18:31:16.333Z,-8.16
2022-12-03T18:36:49.057Z,-8.18
2022-12-03T18:41:52.343Z,-8.16
2022-12-03T18:46:56.063Z,-8.41
2022-12-03T18:51:59.705Z,-8.30
2022-12-03T18:57:02.389Z,-8.41
2022-12-03T19:02:05.688Z,-8.38
2022-12-03T19:07:08.992Z,-8.45
2022-12-03T19:12:14.725Z,-8.56
2022-12-03T19:17:19.898Z,-8.63
2022-12-03T19:22:22.472Z,-8.56
2022-12-03T19:27:24.943Z,-8.63
2022-12-03T19:32:27.318Z,-8.69
2022-12-03T19:37:32.977Z,-8.70
2022-12-03T19:42:35.450Z,-8.84
2022-12-03T19:47:38.303Z,-8.81
2022-12-03T19:52:40.828Z,-9.08
2022-12-03T19:57:43.256Z,-9.09
2022-12-03T20:02:49.159Z,-9.06
2022-12-03T20:07:51.754Z,-9.11
2022-12-03T20:12:54.255Z,-9.20
2022-12-03T20:18:08.134Z,-9.17
2022-12-03T20:23:10.577Z,-9.22
2022-12-03T20:28:12.787Z,-9.03
2022-12-03T20:33:15.239Z,-9.22
2022-12-03T20:38:17.510Z,-9.24
2022-12-03T20:43:20.542Z,-9.30
2022-12-03T20:48:23.080Z,-9.24
2022-12-03T20:53:25.737Z,-9.30
2022-12-03T20:58:29.312Z,-9.26
2022-12-03T21:03:31.700Z,-9.36
2022-12-03T21:08:40.992Z,-9.42
2022-12-03T21:13:45.137Z,-9.40
2022-12-03T21:18:48.064Z,-9.51
2022-12-03T21:23:50.766Z,-9.49
2022-12-03T21:28:54.115Z,-9.64
2022-12-03T21:33:57.188Z,-9.63
2022-12-03T21:38:59.656Z,-9.45
2022-12-03T21:44:05.196Z,-9.50
2022-12-03T21:49:07.679Z,-9.40
2022-12-03T21:54:09.927Z,-9.42
2022-12-03T21:59:12.561Z,-9.39
2022-12-03T22:04:15.106Z,-9.51
2022-12-03T22:09:21.720Z,-9.48
2022-12-03T22:14:28.719Z,-9.70
2022-12-03T22:19:31.292Z,-9.75
2022-12-03T22:24:33.794Z,-9.69
2022-12-03T22:29:36.222Z,-9.75
2022-12-03T22:34:38.778Z,-9.76
2022-12-03T22:39:41.102Z,-9.78
2022-12-03T22:44:43.463Z,-10.10
2022-12-03T22:49:45.956Z,-10.08
2022-12-03T22:54:48.246Z,-10.12
2022-12-03T22:59:50.674Z,-10.07
2022-12-03T23:04:55.255Z,-10.22
2022-12-03T23:09:58.221Z,-10.13
2022-12-03T23:15:00.813Z,-10.11
2022-12-03T23:20:04.244Z,-10.19
2022-12-03T23:25:07.633Z,-10.35
2022-12-03T23:30:11.401Z,-10.30
2022-12-03T23:35:13.923Z,-10.23
2022-12-03T23:40:16.323Z,-10.44
2022-12-03T23:45:18.763Z,-10.40
2022-12-03T23:50:21.211Z,-10.31
2022-12-03T23:55:24.156Z,-10.43
